sensor_id;sensor_type;location;lat;lon;timestamp;temperature;humidity
37289;DHT22;23174;49.462;11.000;2022-12-31T00:00:09;12.70;99.90
37289;DHT22;23174;49.462;11.000;2022-12-31T00:02:10;12.60;99.90
37289;DHT22;23174;49.462;11.000;2022-12-31T00:04:10;12.70;99.90
37289;DHT22;23174;49.462;11.000;2022-12-31T00:06:24;12.70;99.90
37289;DHT22;23174;49.462;11.000;2022-12-31T00:08:27;12.80;99.90
37289;DHT22;23174;49.462;11.000;2022-12-31T00:10:28;12.80;99.90
37289;DHT22;23174;49.462;11.000;2022-12-31T00:12:29;12.80;99.90
37289;DHT22;23174;49.462;11.000;2022-12-31T00:14:30;12.90;99.90
37289;DHT22;23174;49.462;11.000;2022-12-31T00:16:33;13.10;99.90
37289;DHT22;23174;49.462;11.000;2022-12-31T00:18:35;13.30;99.90
37289;DHT22;23174;49.462;11.000;2022-12-31T00:20:41;13.40;99.90
37289;DHT22;23174;49.462;11.000;2022-12-31T00:22:42;13.40;99.90
37289;DHT22;23174;49.462;11.000;2022-12-31T00:24:43;13.40;99.90
37289;DHT22;23174;49.462;11.000;2022-12-31T00:26:43;13.40;99.90
37289;DHT22;23174;49.462;11.000;2022-12-31T00:28:44;13.40;99.90
37289;DHT22;23174;49.462;11.000;2022-12-31T00:30:44;13.40;99.90
37289;DHT22;23174;49.462;11.000;2022-12-31T00:32:45;13.40;99.90
37289;DHT22;23174;49.462;11.000;2022-12-31T00:34:46;13.40;99.90
37289;DHT22;23174;49.462;11.000;2022-12-31T00:36:46;13.40;99.90
37289;DHT22;23174;49.462;11.000;2022-12-31T00:38:48;13.50;99.90
37289;DHT22;23174;49.462;11.000;2022-12-31T00:40:49;13.50;99.90
37289;DHT22;23174;49.462;11.000;2022-12-31T00:42:50;13.50;99.90
37289;DHT22;23174;49.462;11.000;2022-12-31T00:44:50;13.50;99.90
37289;DHT22;23174;49.462;11.000;2022-12-31T00:46:51;13.70;99.90
37289;DHT22;23174;49.462;11.000;2022-12-31T00:48:52;13.70;99.90
37289;DHT22;23174;49.462;11.000;2022-12-31T00:50:53;13.80;99.90
37289;DHT22;23174;49.462;11.000;2022-12-31T00:52:54;13.80;99.90
37289;DHT22;23174;49.462;11.000;2022-12-31T00:54:55;13.80;99.90
37289;DHT22;23174;49.462;11.000;2022-12-31T00:56:57;13.80;99.90
37289;DHT22;23174;49.462;11.000;2022-12-31T00:58:59;13.80;99.90
37289;DHT22;23174;49.462;11.000;2022-12-31T01:01:13;13.90;99.90
37289;DHT22;23174;49.462;11.000;2022-12-31T01:03:15;13.90;99.90
37289;DHT22;23174;49.462;11.000;2022-12-31T01:05:15;13.90;99.90
37289;DHT22;23174;49.462;11.000;2022-12-31T01:07:16;13.90;99.90
37289;DHT22;23174;49.462;11.000;2022-12-31T01:09:17;13.90;99.90
37289;DHT22;23174;49.462;11.000;2022-12-31T01:11:18;13.90;99.90
37289;DHT22;23174;49.462;11.000;2022-12-31T01:13:19;13.90;99.90
37289;DHT22;23174;49.462;11.000;2022-12-31T01:15:19;13.90;99.90
37289;DHT22;23174;49.462;11.000;2022-12-31T01:17:20;13.90;99.90
37289;DHT22;23174;49.462;11.000;2022-12-31T01:19:23;13.90;99.90
37289;DHT22;23174;49.462;11.000;2022-12-31T01:21:24;14.00;99.90
37289;DHT22;23174;49.462;11.000;2022-12-31T01:23:24;14.10;99.90
37289;DHT22;23174;49.462;11.000;2022-12-31T01:25:25;14.00;99.90
37289;DHT22;23174;49.462;11.000;2022-12-31T01:27:25;14.00;99.90
37289;DHT22;23174;49.462;11.000;2022-12-31T01:29:26;14.00;99.90
37289;DHT22;23174;49.462;11.000;2022-12-31T01:31:27;13.90;99.90
37289;DHT22;23174;49.462;11.000;2022-12-31T01:33:28;13.70;99.90
37289;DHT22;23174;49.462;11.000;2022-12-31T01:35:28;13.60;99.90
37289;DHT22;23174;49.462;11.000;2022-12-31T01:37:29;13.40;99.90
37289;DHT22;23174;49.462;11.000;2022-12-31T01:39:29;13.40;99.90
37289;DHT22;23174;49.462;11.000;2022-12-31T01:41:36;13.60;99.90
37289;DHT22;23174;49.462;11.000;2022-12-31T01:43:46;13.50;99.90
37289;DHT22;23174;49.462;11.000;2022-12-31T01:45:51;13.60;99.90
37289;DHT22;23174;49.462;11.000;2022-12-31T01:47:54;13.50;99.90
37289;DHT22;23174;49.462;11.000;2022-12-31T01:50:00;13.50;99.90
37289;DHT22;23174;49.462;11.000;2022-12-31T01:52:04;13.50;99.90
37289;DHT22;23174;49.462;11.000;2022-12-31T01:54:08;13.50;99.90
37289;DHT22;23174;49.462;11.000;2022-12-31T01:56:10;13.50;99.90
37289;DHT22;23174;49.462;11.000;2022-12-31T01:58:19;13.50;99.90
37289;DHT22;23174;49.462;11.000;2022-12-31T02:00:20;13.50;99.90
37289;DHT22;23174;49.462;11.000;2022-12-31T02:02:20;13.40;99.90
37289;DHT22;23174;49.462;11.000;2022-12-31T02:04:23;13.40;99.90
37289;DHT22;23174;49.462;11.000;2022-12-31T02:06:37;13.40;99.90
37289;DHT22;23174;49.462;11.000;2022-12-31T02:08:38;13.40;99.90
37289;DHT22;23174;49.462;11.000;2022-12-31T02:10:39;13.30;99.90
37289;DHT22;23174;49.462;11.000;2022-12-31T02:12:40;13.30;99.90
37289;DHT22;23174;49.462;11.000;2022-12-31T02:14:46;13.30;99.90
37289;DHT22;23174;49.462;11.000;2022-12-31T02:16:54;13.30;99.90
37289;DHT22;23174;49.462;11.000;2022-12-31T02:19:09;13.30;99.90
37289;DHT22;23174;49.462;11.000;2022-12-31T02:31:19;13.20;99.90
37289;DHT22;23174;49.462;11.000;2022-12-31T02:33:42;13.20;99.90
37289;DHT22;23174;49.462;11.000;2022-12-31T02:35:54;13.20;99.90
37289;DHT22;23174;49.462;11.000;2022-12-31T02:37:57;13.20;99.90
37289;DHT22;23174;49.462;11.000;2022-12-31T02:40:00;13.30;99.90
37289;DHT22;23174;49.462;11.000;2022-12-31T02:42:01;13.30;99.90
37289;DHT22;23174;49.462;11.000;2022-12-31T02:46:31;13.20;99.90
37289;DHT22;23174;49.462;11.000;2022-12-31T02:48:39;13.20;99.90
37289;DHT22;23174;49.462;11.000;2022-12-31T02:53:34;13.30;99.90
37289;DHT22;23174;49.462;11.000;2022-12-31T02:56:05;13.20;99.90
37289;DHT22;23174;49.462;11.000;2022-12-31T03:00:55;13.20;99.90
37289;DHT22;23174;49.462;11.000;2022-12-31T03:03:16;13.20;99.90
37289;DHT22;23174;49.462;11.000;2022-12-31T03:05:22;13.10;99.90
37289;DHT22;23174;49.462;11.000;2022-12-31T03:07:26;13.20;99.90
37289;DHT22;23174;49.462;11.000;2022-12-31T03:09:27;13.20;99.90
37289;DHT22;23174;49.462;11.000;2022-12-31T03:11:30;13.30;99.90
37289;DHT22;23174;49.462;11.000;2022-12-31T03:13:50;13.40;99.90
37289;DHT22;23174;49.462;11.000;2022-12-31T03:15:50;13.60;99.90
37289;DHT22;23174;49.462;11.000;2022-12-31T03:18:17;13.70;99.90
37289;DHT22;23174;49.462;11.000;2022-12-31T03:20:39;13.80;99.90
37289;DHT22;23174;49.462;11.000;2022-12-31T03:22:59;13.90;99.90
37289;DHT22;23174;49.462;11.000;2022-12-31T03:25:10;14.00;99.90
37289;DHT22;23174;49.462;11.000;2022-12-31T03:27:29;13.90;99.90
37289;DHT22;23174;49.462;11.000;2022-12-31T03:29:30;13.90;99.90
37289;DHT22;23174;49.462;11.000;2022-12-31T03:31:30;13.90;99.90
37289;DHT22;23174;49.462;11.000;2022-12-31T03:33:36;13.90;99.90
37289;DHT22;23174;49.462;11.000;2022-12-31T03:35:38;13.90;99.90
37289;DHT22;23174;49.462;11.000;2022-12-31T03:37:40;13.80;99.90
37289;DHT22;23174;49.462;11.000;2022-12-31T03:39:40;13.90;99.90
37289;DHT22;23174;49.462;11.000;2022-12-31T03:41:41;13.90;99.90
37289;DHT22;23174;49.462;11.000;2022-12-31T03:43:42;13.80;99.90
37289;DHT22;23174;49.462;11.000;2022-12-31T03:45:42;13.90;99.90
37289;DHT22;23174;49.462;11.000;2022-12-31T03:47:43;13.90;99.90
37289;DHT22;23174;49.462;11.000;2022-12-31T03:49:44;14.00;99.90
37289;DHT22;23174;49.462;11.000;2022-12-31T03:51:44;14.00;99.90
37289;DHT22;23174;49.462;11.000;2022-12-31T03:53:45;14.00;99.90
37289;DHT22;23174;49.462;11.000;2022-12-31T03:55:53;14.00;99.90
37289;DHT22;23174;49.462;11.000;2022-12-31T03:57:54;14.10;99.90
37289;DHT22;23174;49.462;11.000;2022-12-31T03:59:54;14.10;99.90
37289;DHT22;23174;49.462;11.000;2022-12-31T04:01:55;14.20;99.90
37289;DHT22;23174;49.462;11.000;2022-12-31T04:03:55;14.20;99.90
37289;DHT22;23174;49.462;11.000;2022-12-31T04:05:56;14.20;99.90
37289;DHT22;23174;49.462;11.000;2022-12-31T04:07:56;14.20;99.90
37289;DHT22;23174;49.462;11.000;2022-12-31T04:09:57;14.20;99.90
37289;DHT22;23174;49.462;11.000;2022-12-31T04:11:58;14.20;99.90
37289;DHT22;23174;49.462;11.000;2022-12-31T04:13:58;14.10;99.90
37289;DHT22;23174;49.462;11.000;2022-12-31T04:15:59;14.20;99.90
37289;DHT22;23174;49.462;11.000;2022-12-31T04:17:59;14.10;99.90
37289;DHT22;23174;49.462;11.000;2022-12-31T04:20:00;14.20;99.90
37289;DHT22;23174;49.462;11.000;2022-12-31T04:22:01;14.20;99.90
37289;DHT22;23174;49.462;11.000;2022-12-31T04:24:02;14.20;99.90
37289;DHT22;23174;49.462;11.000;2022-12-31T04:26:03;14.30;99.90
37289;DHT22;23174;49.462;11.000;2022-12-31T04:28:03;14.30;99.90
37289;DHT22;23174;49.462;11.000;2022-12-31T04:30:05;14.30;99.90
37289;DHT22;23174;49.462;11.000;2022-12-31T04:32:07;14.30;99.90
37289;DHT22;23174;49.462;11.000;2022-12-31T04:34:07;14.30;99.90
37289;DHT22;23174;49.462;11.000;2022-12-31T04:36:09;14.40;99.90
37289;DHT22;23174;49.462;11.000;2022-12-31T04:38:09;14.40;99.90
37289;DHT22;23174;49.462;11.000;2022-12-31T04:40:10;14.40;99.90
37289;DHT22;23174;49.462;11.000;2022-12-31T04:42:11;14.40;99.90
37289;DHT22;23174;49.462;11.000;2022-12-31T04:44:11;14.40;99.90
37289;DHT22;23174;49.462;11.000;2022-12-31T04:46:13;14.40;99.90
37289;DHT22;23174;49.462;11.000;2022-12-31T04:48:14;14.40;99.90
37289;DHT22;23174;49.462;11.000;2022-12-31T04:50:14;14.40;99.90
37289;DHT22;23174;49.462;11.000;2022-12-31T04:52:15;14.50;99.90
37289;DHT22;23174;49.462;11.000;2022-12-31T04:54:15;14.50;99.90
37289;DHT22;23174;49.462;11.000;2022-12-31T04:56:17;14.50;99.90
37289;DHT22;23174;49.462;11.000;2022-12-31T04:58:18;14.50;99.90
37289;DHT22;23174;49.462;11.000;2022-12-31T05:00:18;14.50;99.90
37289;DHT22;23174;49.462;11.000;2022-12-31T05:02:19;14.50;99.90
37289;DHT22;23174;49.462;11.000;2022-12-31T05:04:20;14.50;99.90
37289;DHT22;23174;49.462;11.000;2022-12-31T05:06:22;14.50;99.90
37289;DHT22;23174;49.462;11.000;2022-12-31T05:08:22;14.50;99.90
37289;DHT22;23174;49.462;11.000;2022-12-31T05:10:23;14.50;99.90
37289;DHT22;23174;49.462;11.000;2022-12-31T05:12:24;14.40;99.90
37289;DHT22;23174;49.462;11.000;2022-12-31T05:14:25;14.40;99.90
37289;DHT22;23174;49.462;11.000;2022-12-31T05:16:26;14.40;99.90
37289;DHT22;23174;49.462;11.000;2022-12-31T05:18:26;14.40;99.90
37289;DHT22;23174;49.462;11.000;2022-12-31T05:20:27;14.40;99.90
37289;DHT22;23174;49.462;11.000;2022-12-31T05:22:28;14.40;99.90
37289;DHT22;23174;49.462;11.000;2022-12-31T05:24:28;14.40;99.90
37289;DHT22;23174;49.462;11.000;2022-12-31T05:26:29;14.40;99.90
37289;DHT22;23174;49.462;11.000;2022-12-31T05:28:30;14.30;99.90
37289;DHT22;23174;49.462;11.000;2022-12-31T05:30:32;14.30;99.90
37289;DHT22;23174;49.462;11.000;2022-12-31T05:32:32;14.30;99.90
37289;DHT22;23174;49.462;11.000;2022-12-31T05:34:33;14.30;99.90
37289;DHT22;23174;49.462;11.000;2022-12-31T05:36:34;14.20;99.90
37289;DHT22;23174;49.462;11.000;2022-12-31T05:38:36;14.20;99.90
37289;DHT22;23174;49.462;11.000;2022-12-31T05:42:39;14.20;99.90
37289;DHT22;23174;49.462;11.000;2022-12-31T05:44:39;14.20;99.90
37289;DHT22;23174;49.462;11.000;2022-12-31T05:46:40;14.10;99.90
37289;DHT22;23174;49.462;11.000;2022-12-31T05:48:41;14.10;99.90
37289;DHT22;23174;49.462;11.000;2022-12-31T05:50:41;14.10;99.90
37289;DHT22;23174;49.462;11.000;2022-12-31T05:52:42;14.10;99.90
37289;DHT22;23174;49.462;11.000;2022-12-31T05:54:43;14.10;99.90
37289;DHT22;23174;49.462;11.000;2022-12-31T05:56:44;14.00;99.90
37289;DHT22;23174;49.462;11.000;2022-12-31T05:58:44;14.00;99.90
37289;DHT22;23174;49.462;11.000;2022-12-31T06:00:45;14.10;99.90
37289;DHT22;23174;49.462;11.000;2022-12-31T06:02:45;14.00;99.90
37289;DHT22;23174;49.462;11.000;2022-12-31T06:04:46;14.00;99.90
37289;DHT22;23174;49.462;11.000;2022-12-31T06:06:47;14.00;99.90
37289;DHT22;23174;49.462;11.000;2022-12-31T06:08:51;14.00;99.90
37289;DHT22;23174;49.462;11.000;2022-12-31T06:10:51;13.90;99.90
37289;DHT22;23174;49.462;11.000;2022-12-31T06:12:52;13.90;99.90
37289;DHT22;23174;49.462;11.000;2022-12-31T06:14:52;13.90;99.90
37289;DHT22;23174;49.462;11.000;2022-12-31T06:16:53;13.90;99.90
37289;DHT22;23174;49.462;11.000;2022-12-31T06:18:54;13.90;99.90
37289;DHT22;23174;49.462;11.000;2022-12-31T06:20:57;13.90;99.90
37289;DHT22;23174;49.462;11.000;2022-12-31T06:22:57;13.80;99.90
37289;DHT22;23174;49.462;11.000;2022-12-31T06:24:59;13.80;99.90
37289;DHT22;23174;49.462;11.000;2022-12-31T06:26:59;13.80;99.90
37289;DHT22;23174;49.462;11.000;2022-12-31T06:29:00;13.80;99.90
37289;DHT22;23174;49.462;11.000;2022-12-31T06:31:02;13.80;99.90
37289;DHT22;23174;49.462;11.000;2022-12-31T06:33:03;13.90;99.90
37289;DHT22;23174;49.462;11.000;2022-12-31T06:35:06;13.80;99.90
37289;DHT22;23174;49.462;11.000;2022-12-31T06:37:07;13.90;99.90
37289;DHT22;23174;49.462;11.000;2022-12-31T06:39:07;13.80;99.90
37289;DHT22;23174;49.462;11.000;2022-12-31T06:41:11;13.90;99.90
37289;DHT22;23174;49.462;11.000;2022-12-31T06:43:12;13.90;99.90
37289;DHT22;23174;49.462;11.000;2022-12-31T06:45:12;14.00;99.90
37289;DHT22;23174;49.462;11.000;2022-12-31T06:47:13;14.00;99.90
37289;DHT22;23174;49.462;11.000;2022-12-31T06:49:13;14.00;99.90
37289;DHT22;23174;49.462;11.000;2022-12-31T06:51:16;14.10;99.90
37289;DHT22;23174;49.462;11.000;2022-12-31T06:53:17;14.10;99.90
37289;DHT22;23174;49.462;11.000;2022-12-31T06:55:18;14.20;99.90
37289;DHT22;23174;49.462;11.000;2022-12-31T06:57:18;14.20;99.90
37289;DHT22;23174;49.462;11.000;2022-12-31T06:59:27;14.30;99.90
37289;DHT22;23174;49.462;11.000;2022-12-31T07:03:42;14.40;99.90
37289;DHT22;23174;49.462;11.000;2022-12-31T07:06:12;14.40;99.90
37289;DHT22;23174;49.462;11.000;2022-12-31T07:15:18;14.50;99.90
37289;DHT22;23174;49.462;11.000;2022-12-31T07:17:50;14.50;99.90
37289;DHT22;23174;49.462;11.000;2022-12-31T07:22:03;14.60;99.90
37289;DHT22;23174;49.462;11.000;2022-12-31T07:24:06;14.60;99.90
37289;DHT22;23174;49.462;11.000;2022-12-31T07:26:17;14.60;99.90
37289;DHT22;23174;49.462;11.000;2022-12-31T07:31:11;14.70;99.90
37289;DHT22;23174;49.462;11.000;2022-12-31T07:33:07;14.80;99.90
37289;DHT22;23174;49.462;11.000;2022-12-31T07:35:16;14.80;99.90
37289;DHT22;23174;49.462;11.000;2022-12-31T07:37:46;14.80;99.90
37289;DHT22;23174;49.462;11.000;2022-12-31T07:42:20;14.90;99.90
37289;DHT22;23174;49.462;11.000;2022-12-31T07:48:55;15.00;99.90
37289;DHT22;23174;49.462;11.000;2022-12-31T07:50:56;15.00;99.90
37289;DHT22;23174;49.462;11.000;2022-12-31T07:52:57;14.90;99.90
37289;DHT22;23174;49.462;11.000;2022-12-31T07:54:58;15.00;99.90
37289;DHT22;23174;49.462;11.000;2022-12-31T07:56:58;15.00;99.90
37289;DHT22;23174;49.462;11.000;2022-12-31T08:01:25;15.00;99.90
37289;DHT22;23174;49.462;11.000;2022-12-31T08:13:17;15.10;99.90
37289;DHT22;23174;49.462;11.000;2022-12-31T08:15:18;15.20;99.90
37289;DHT22;23174;49.462;11.000;2022-12-31T08:17:19;15.20;99.90
37289;DHT22;23174;49.462;11.000;2022-12-31T08:19:28;15.20;99.90
37289;DHT22;23174;49.462;11.000;2022-12-31T08:21:43;15.20;99.90
37289;DHT22;23174;49.462;11.000;2022-12-31T08:26:13;15.30;99.90
37289;DHT22;23174;49.462;11.000;2022-12-31T08:28:25;15.30;99.90
37289;DHT22;23174;49.462;11.000;2022-12-31T08:31:02;15.30;99.90
37289;DHT22;23174;49.462;11.000;2022-12-31T08:33:24;15.40;99.90
37289;DHT22;23174;49.462;11.000;2022-12-31T08:43:16;15.50;99.90
37289;DHT22;23174;49.462;11.000;2022-12-31T08:45:27;15.70;99.90
37289;DHT22;23174;49.462;11.000;2022-12-31T08:47:37;15.70;99.90
37289;DHT22;23174;49.462;11.000;2022-12-31T08:49:40;15.70;99.90
37289;DHT22;23174;49.462;11.000;2022-12-31T08:51:41;15.70;99.90
37289;DHT22;23174;49.462;11.000;2022-12-31T08:53:42;15.70;99.90
37289;DHT22;23174;49.462;11.000;2022-12-31T08:55:45;15.70;99.90
37289;DHT22;23174;49.462;11.000;2022-12-31T09:00:05;15.70;99.90
37289;DHT22;23174;49.462;11.000;2022-12-31T09:06:43;15.70;99.90
37289;DHT22;23174;49.462;11.000;2022-12-31T09:08:59;15.80;99.90
37289;DHT22;23174;49.462;11.000;2022-12-31T09:11:09;15.80;99.90
37289;DHT22;23174;49.462;11.000;2022-12-31T09:15:41;15.30;99.90
37289;DHT22;23174;49.462;11.000;2022-12-31T09:19:44;15.30;99.90
37289;DHT22;23174;49.462;11.000;2022-12-31T09:21:45;15.20;99.90
37289;DHT22;23174;49.462;11.000;2022-12-31T09:23:45;15.20;99.90
37289;DHT22;23174;49.462;11.000;2022-12-31T09:25:58;15.20;99.90
37289;DHT22;23174;49.462;11.000;2022-12-31T09:30:13;15.30;99.90
37289;DHT22;23174;49.462;11.000;2022-12-31T09:36:37;15.40;99.90
37289;DHT22;23174;49.462;11.000;2022-12-31T09:41:00;15.30;99.90
37289;DHT22;23174;49.462;11.000;2022-12-31T09:53:26;15.50;99.90
37289;DHT22;23174;49.462;11.000;2022-12-31T09:55:43;15.60;99.90
37289;DHT22;23174;49.462;11.000;2022-12-31T09:58:05;15.60;99.90
37289;DHT22;23174;49.462;11.000;2022-12-31T10:09:35;15.70;99.90
37289;DHT22;23174;49.462;11.000;2022-12-31T10:12:15;15.70;99.90
37289;DHT22;23174;49.462;11.000;2022-12-31T10:14:28;15.90;99.90
37289;DHT22;23174;49.462;11.000;2022-12-31T10:16:56;15.90;99.90
37289;DHT22;23174;49.462;11.000;2022-12-31T10:19:42;15.90;99.90
37289;DHT22;23174;49.462;11.000;2022-12-31T10:21:53;15.90;99.90
37289;DHT22;23174;49.462;11.000;2022-12-31T10:31:36;16.00;99.90
37289;DHT22;23174;49.462;11.000;2022-12-31T10:33:44;16.10;99.90
37289;DHT22;23174;49.462;11.000;2022-12-31T10:40:37;16.00;99.90
37289;DHT22;23174;49.462;11.000;2022-12-31T10:45:14;16.10;99.90
37289;DHT22;23174;49.462;11.000;2022-12-31T10:47:32;16.00;99.90
37289;DHT22;23174;49.462;11.000;2022-12-31T11:03:45;16.00;99.90
37289;DHT22;23174;49.462;11.000;2022-12-31T11:18:00;16.10;99.90
37289;DHT22;23174;49.462;11.000;2022-12-31T11:20:09;16.10;99.90
37289;DHT22;23174;49.462;11.000;2022-12-31T11:24:59;16.10;99.90
37289;DHT22;23174;49.462;11.000;2022-12-31T11:27:20;16.10;99.90
37289;DHT22;23174;49.462;11.000;2022-12-31T11:36:34;16.30;99.90
37289;DHT22;23174;49.462;11.000;2022-12-31T11:38:42;16.30;99.90
37289;DHT22;23174;49.462;11.000;2022-12-31T11:40:55;16.30;99.90
37289;DHT22;23174;49.462;11.000;2022-12-31T11:45:43;16.30;99.90
37289;DHT22;23174;49.462;11.000;2022-12-31T11:56:01;16.50;99.90
37289;DHT22;23174;49.462;11.000;2022-12-31T11:57:46;16.50;99.90
37289;DHT22;23174;49.462;11.000;2022-12-31T11:59:56;16.60;99.90
37289;DHT22;23174;49.462;11.000;2022-12-31T12:02:03;16.60;99.90
37289;DHT22;23174;49.462;11.000;2022-12-31T12:04:10;16.70;99.90
37289;DHT22;23174;49.462;11.000;2022-12-31T12:06:13;16.70;99.90
37289;DHT22;23174;49.462;11.000;2022-12-31T12:08:14;16.80;99.90
37289;DHT22;23174;49.462;11.000;2022-12-31T12:10:25;16.80;99.90
37289;DHT22;23174;49.462;11.000;2022-12-31T12:12:38;16.80;99.90
37289;DHT22;23174;49.462;11.000;2022-12-31T12:14:40;16.80;99.90
37289;DHT22;23174;49.462;11.000;2022-12-31T12:16:41;16.80;99.90
37289;DHT22;23174;49.462;11.000;2022-12-31T12:18:50;16.80;99.90
37289;DHT22;23174;49.462;11.000;2022-12-31T12:20:51;16.80;99.90
37289;DHT22;23174;49.462;11.000;2022-12-31T12:22:54;16.90;99.90
37289;DHT22;23174;49.462;11.000;2022-12-31T12:25:09;16.90;99.90
37289;DHT22;23174;49.462;11.000;2022-12-31T12:27:26;16.90;99.90
37289;DHT22;23174;49.462;11.000;2022-12-31T12:29:30;16.90;99.90
37289;DHT22;23174;49.462;11.000;2022-12-31T12:31:31;16.90;99.90
37289;DHT22;23174;49.462;11.000;2022-12-31T12:33:44;16.90;99.90
37289;DHT22;23174;49.462;11.000;2022-12-31T12:35:45;17.00;99.90
37289;DHT22;23174;49.462;11.000;2022-12-31T12:37:46;17.00;99.90
37289;DHT22;23174;49.462;11.000;2022-12-31T12:40:00;16.90;99.90
37289;DHT22;23174;49.462;11.000;2022-12-31T12:42:10;16.90;99.90
37289;DHT22;23174;49.462;11.000;2022-12-31T12:44:15;16.90;99.90
37289;DHT22;23174;49.462;11.000;2022-12-31T12:46:34;16.90;99.90
37289;DHT22;23174;49.462;11.000;2022-12-31T12:48:40;16.90;99.90
37289;DHT22;23174;49.462;11.000;2022-12-31T12:50:44;16.90;99.90
37289;DHT22;23174;49.462;11.000;2022-12-31T12:52:55;16.90;99.90
37289;DHT22;23174;49.462;11.000;2022-12-31T13:07:17;17.00;99.90
37289;DHT22;23174;49.462;11.000;2022-12-31T13:12:08;17.00;99.90
37289;DHT22;23174;49.462;11.000;2022-12-31T13:14:22;17.00;99.90
37289;DHT22;23174;49.462;11.000;2022-12-31T13:18:56;17.00;99.90
37289;DHT22;23174;49.462;11.000;2022-12-31T13:23:18;17.00;99.90
37289;DHT22;23174;49.462;11.000;2022-12-31T13:27:51;17.00;99.90
37289;DHT22;23174;49.462;11.000;2022-12-31T13:29:58;17.00;99.90
37289;DHT22;23174;49.462;11.000;2022-12-31T13:32:01;17.00;99.90
37289;DHT22;23174;49.462;11.000;2022-12-31T13:34:11;17.00;99.90
37289;DHT22;23174;49.462;11.000;2022-12-31T13:36:18;17.00;99.90
37289;DHT22;23174;49.462;11.000;2022-12-31T13:38:20;17.00;99.90
37289;DHT22;23174;49.462;11.000;2022-12-31T13:43:00;17.00;99.90
37289;DHT22;23174;49.462;11.000;2022-12-31T13:45:09;17.00;99.90
37289;DHT22;23174;49.462;11.000;2022-12-31T13:47:12;16.90;99.90
37289;DHT22;23174;49.462;11.000;2022-12-31T13:49:37;17.00;99.90
37289;DHT22;23174;49.462;11.000;2022-12-31T13:51:48;16.90;99.90
37289;DHT22;23174;49.462;11.000;2022-12-31T13:56:23;16.90;99.90
37289;DHT22;23174;49.462;11.000;2022-12-31T14:00:46;16.90;99.90
37289;DHT22;23174;49.462;11.000;2022-12-31T14:02:53;16.80;99.90
37289;DHT22;23174;49.462;11.000;2022-12-31T14:05:12;16.80;99.90
37289;DHT22;23174;49.462;11.000;2022-12-31T14:08:01;16.80;99.90
37289;DHT22;23174;49.462;11.000;2022-12-31T14:10:01;16.80;99.90
37289;DHT22;23174;49.462;11.000;2022-12-31T14:12:12;16.80;99.90
37289;DHT22;23174;49.462;11.000;2022-12-31T14:16:45;16.80;99.90
37289;DHT22;23174;49.462;11.000;2022-12-31T14:19:13;16.80;99.90
37289;DHT22;23174;49.462;11.000;2022-12-31T14:21:27;16.80;99.90
37289;DHT22;23174;49.462;11.000;2022-12-31T14:24:00;16.80;99.90
37289;DHT22;23174;49.462;11.000;2022-12-31T14:26:18;16.70;99.90
37289;DHT22;23174;49.462;11.000;2022-12-31T14:28:25;16.70;99.90
37289;DHT22;23174;49.462;11.000;2022-12-31T14:30:33;16.70;99.90
37289;DHT22;23174;49.462;11.000;2022-12-31T14:36:57;16.60;99.90
37289;DHT22;23174;49.462;11.000;2022-12-31T14:39:17;16.50;99.90
37289;DHT22;23174;49.462;11.000;2022-12-31T14:41:29;16.50;99.90
37289;DHT22;23174;49.462;11.000;2022-12-31T14:46:02;16.40;99.90
37289;DHT22;23174;49.462;11.000;2022-12-31T14:48:21;16.40;99.90
37289;DHT22;23174;49.462;11.000;2022-12-31T14:50:26;16.30;99.90
37289;DHT22;23174;49.462;11.000;2022-12-31T14:52:49;16.30;99.90
37289;DHT22;23174;49.462;11.000;2022-12-31T14:57:20;16.30;99.90
37289;DHT22;23174;49.462;11.000;2022-12-31T14:59:29;16.30;99.90
37289;DHT22;23174;49.462;11.000;2022-12-31T15:01:30;16.20;99.90
37289;DHT22;23174;49.462;11.000;2022-12-31T15:03:38;16.20;99.90
37289;DHT22;23174;49.462;11.000;2022-12-31T15:05:50;16.10;99.90
37289;DHT22;23174;49.462;11.000;2022-12-31T15:08:13;16.10;99.90
37289;DHT22;23174;49.462;11.000;2022-12-31T15:10:28;16.10;99.90
37289;DHT22;23174;49.462;11.000;2022-12-31T15:13:06;16.00;99.90
37289;DHT22;23174;49.462;11.000;2022-12-31T15:24:23;15.80;99.90
37289;DHT22;23174;49.462;11.000;2022-12-31T15:26:28;15.70;99.90
37289;DHT22;23174;49.462;11.000;2022-12-31T15:28:36;15.70;99.90
37289;DHT22;23174;49.462;11.000;2022-12-31T15:30:43;15.70;99.90
37289;DHT22;23174;49.462;11.000;2022-12-31T15:32:45;15.60;99.90
37289;DHT22;23174;49.462;11.000;2022-12-31T15:34:46;15.60;99.90
37289;DHT22;23174;49.462;11.000;2022-12-31T15:36:55;15.60;99.90
37289;DHT22;23174;49.462;11.000;2022-12-31T15:39:24;15.60;99.90
37289;DHT22;23174;49.462;11.000;2022-12-31T15:41:27;15.70;99.90
37289;DHT22;23174;49.462;11.000;2022-12-31T15:43:34;15.60;99.90
37289;DHT22;23174;49.462;11.000;2022-12-31T15:45:37;15.60;99.90
37289;DHT22;23174;49.462;11.000;2022-12-31T15:47:42;15.60;99.90
37289;DHT22;23174;49.462;11.000;2022-12-31T15:49:45;15.50;99.90
37289;DHT22;23174;49.462;11.000;2022-12-31T15:51:59;15.40;99.90
37289;DHT22;23174;49.462;11.000;2022-12-31T15:54:01;15.40;99.90
37289;DHT22;23174;49.462;11.000;2022-12-31T15:56:04;15.30;99.90
37289;DHT22;23174;49.462;11.000;2022-12-31T15:58:11;15.30;99.90
37289;DHT22;23174;49.462;11.000;2022-12-31T16:00:19;15.30;99.90
37289;DHT22;23174;49.462;11.000;2022-12-31T16:02:23;15.20;99.90
37289;DHT22;23174;49.462;11.000;2022-12-31T16:04:26;15.20;99.90
37289;DHT22;23174;49.462;11.000;2022-12-31T16:06:29;15.10;99.90
37289;DHT22;23174;49.462;11.000;2022-12-31T16:08:33;15.10;99.90
37289;DHT22;23174;49.462;11.000;2022-12-31T16:10:34;15.10;99.90
37289;DHT22;23174;49.462;11.000;2022-12-31T16:12:37;15.10;99.90
37289;DHT22;23174;49.462;11.000;2022-12-31T16:14:41;15.10;99.90
37289;DHT22;23174;49.462;11.000;2022-12-31T16:16:54;15.10;99.90
37289;DHT22;23174;49.462;11.000;2022-12-31T16:18:56;15.10;99.90
37289;DHT22;23174;49.462;11.000;2022-12-31T16:20:56;14.90;99.90
37289;DHT22;23174;49.462;11.000;2022-12-31T16:22:59;14.90;99.90
37289;DHT22;23174;49.462;11.000;2022-12-31T16:25:01;14.90;99.90
37289;DHT22;23174;49.462;11.000;2022-12-31T16:27:05;14.80;99.90
37289;DHT22;23174;49.462;11.000;2022-12-31T16:29:13;14.80;99.90
37289;DHT22;23174;49.462;11.000;2022-12-31T16:31:16;14.70;99.90
37289;DHT22;23174;49.462;11.000;2022-12-31T16:33:18;14.70;99.90
37289;DHT22;23174;49.462;11.000;2022-12-31T16:35:28;14.60;99.90